sensor_id;sensor_type;location;lat;lon;timestamp;pressure;altitude;pressure_sealevel;temperature;humidity
25855;BME280;13680;49.936;11.344;2023-02-19T00:00:00;96927.91;;;9.77;91.35
25855;BME280;13680;49.936;11.344;2023-02-19T00:02:25;96925.31;;;9.72;91.33
25855;BME280;13680;49.936;11.344;2023-02-19T00:04:50;96934.81;;;9.64;92.06
25855;BME280;13680;49.936;11.344;2023-02-19T00:07:16;96935.59;;;9.45;92.42
25855;BME280;13680;49.936;11.344;2023-02-19T00:09:41;96933.84;;;9.55;92.01
25855;BME280;13680;49.936;11.344;2023-02-19T00:12:07;96939.31;;;9.69;91.79
25855;BME280;13680;49.936;11.344;2023-02-19T00:14:32;96939.63;;;9.86;89.65
25855;BME280;13680;49.936;11.344;2023-02-19T00:16:57;96938.59;;;9.82;90.33
25855;BME280;13680;49.936;11.344;2023-02-19T00:19:23;96942.56;;;9.65;90.52
25855;BME280;13680;49.936;11.344;2023-02-19T00:21:52;96947.09;;;9.70;90.13
25855;BME280;13680;49.936;11.344;2023-02-19T00:24:18;96942.88;;;9.83;88.80
25855;BME280;13680;49.936;11.344;2023-02-19T00:26:44;96933.59;;;9.75;88.46
25855;BME280;13680;49.936;11.344;2023-02-19T00:29:18;96933.66;;;9.89;87.60
25855;BME280;13680;49.936;11.344;2023-02-19T00:31:44;96929.13;;;9.65;88.54
25855;BME280;13680;49.936;11.344;2023-02-19T00:34:10;96928.94;;;9.62;88.25
25855;BME280;13680;49.936;11.344;2023-02-19T00:36:37;96926.25;;;9.62;89.24
25855;BME280;13680;49.936;11.344;2023-02-19T00:39:04;96916.03;;;9.83;87.23
25855;BME280;13680;49.936;11.344;2023-02-19T00:41:30;96922.00;;;9.80;86.94
25855;BME280;13680;49.936;11.344;2023-02-19T00:43:58;96918.13;;;9.24;89.93
25855;BME280;13680;49.936;11.344;2023-02-19T00:46:30;96913.47;;;9.73;87.93
25855;BME280;13680;49.936;11.344;2023-02-19T00:48:56;96914.38;;;9.44;87.88
25855;BME280;13680;49.936;11.344;2023-02-19T00:51:27;96902.88;;;9.81;87.33
25855;BME280;13680;49.936;11.344;2023-02-19T00:53:53;96898.16;;;9.92;86.50
25855;BME280;13680;49.936;11.344;2023-02-19T00:56:19;96895.53;;;9.87;86.10
25855;BME280;13680;49.936;11.344;2023-02-19T00:58:44;96895.69;;;9.96;85.71
25855;BME280;13680;49.936;11.344;2023-02-19T01:01:10;96904.34;;;10.12;84.67
25855;BME280;13680;49.936;11.344;2023-02-19T01:03:36;96902.38;;;9.79;86.30
25855;BME280;13680;49.936;11.344;2023-02-19T01:06:03;96893.69;;;9.69;86.63
25855;BME280;13680;49.936;11.344;2023-02-19T01:08:29;96895.47;;;9.54;88.02
25855;BME280;13680;49.936;11.344;2023-02-19T01:10:55;96887.41;;;9.54;87.12
25855;BME280;13680;49.936;11.344;2023-02-19T01:13:21;96885.91;;;9.48;88.14
25855;BME280;13680;49.936;11.344;2023-02-19T01:15:46;96889.25;;;9.78;86.72
25855;BME280;13680;49.936;11.344;2023-02-19T01:18:12;96883.00;;;9.63;87.58
25855;BME280;13680;49.936;11.344;2023-02-19T01:20:42;96879.28;;;9.59;87.36
25855;BME280;13680;49.936;11.344;2023-02-19T01:23:09;96878.50;;;9.15;90.06
25855;BME280;13680;49.936;11.344;2023-02-19T01:25:37;96873.94;;;9.40;89.69
25855;BME280;13680;49.936;11.344;2023-02-19T01:28:03;96866.44;;;9.56;88.47
25855;BME280;13680;49.936;11.344;2023-02-19T01:30:28;96850.41;;;9.51;88.76
25855;BME280;13680;49.936;11.344;2023-02-19T01:32:53;96838.28;;;9.73;87.43
25855;BME280;13680;49.936;11.344;2023-02-19T01:35:19;96832.75;;;9.83;86.33
25855;BME280;13680;49.936;11.344;2023-02-19T01:37:44;96833.53;;;9.70;87.35
25855;BME280;13680;49.936;11.344;2023-02-19T01:40:09;96826.63;;;9.25;89.88
25855;BME280;13680;49.936;11.344;2023-02-19T01:42:35;96811.13;;;8.98;91.49
25855;BME280;13680;49.936;11.344;2023-02-19T01:45:27;96814.06;;;9.40;90.26
25855;BME280;13680;49.936;11.344;2023-02-19T01:47:58;96827.38;;;9.07;91.99
25855;BME280;13680;49.936;11.344;2023-02-19T01:50:27;96823.25;;;9.14;90.84
25855;BME280;13680;49.936;11.344;2023-02-19T01:52:54;96831.31;;;9.53;88.92
25855;BME280;13680;49.936;11.344;2023-02-19T01:55:20;96816.97;;;9.43;89.54
25855;BME280;13680;49.936;11.344;2023-02-19T01:57:50;96811.44;;;9.34;89.88
25855;BME280;13680;49.936;11.344;2023-02-19T02:00:18;96806.44;;;9.28;90.53
25855;BME280;13680;49.936;11.344;2023-02-19T02:02:47;96798.81;;;9.54;89.72
25855;BME280;13680;49.936;11.344;2023-02-19T02:05:27;96798.63;;;9.31;90.17
25855;BME280;13680;49.936;11.344;2023-02-19T02:07:55;96810.44;;;9.30;90.64
25855;BME280;13680;49.936;11.344;2023-02-19T02:10:40;96803.31;;;9.40;90.74
25855;BME280;13680;49.936;11.344;2023-02-19T02:13:06;96802.69;;;9.10;93.09
25855;BME280;13680;49.936;11.344;2023-02-19T02:15:39;96796.50;;;9.28;91.92
25855;BME280;13680;49.936;11.344;2023-02-19T02:18:23;96800.41;;;9.17;94.14
25855;BME280;13680;49.936;11.344;2023-02-19T02:21:03;96797.09;;;8.82;95.91
25855;BME280;13680;49.936;11.344;2023-02-19T02:31:29;96773.59;;;9.17;94.59
25855;BME280;13680;49.936;11.344;2023-02-19T02:34:01;96777.13;;;8.93;95.75
25855;BME280;13680;49.936;11.344;2023-02-19T02:36:34;96771.34;;;8.62;100.00
25855;BME280;13680;49.936;11.344;2023-02-19T02:39:01;96767.44;;;9.16;96.63
25855;BME280;13680;49.936;11.344;2023-02-19T02:41:29;96760.06;;;8.84;97.38
25855;BME280;13680;49.936;11.344;2023-02-19T02:43:56;96774.88;;;9.00;97.44
25855;BME280;13680;49.936;11.344;2023-02-19T02:46:25;96762.34;;;8.96;97.55
25855;BME280;13680;49.936;11.344;2023-02-19T02:48:55;96770.59;;;8.56;99.22
25855;BME280;13680;49.936;11.344;2023-02-19T02:51:28;96764.66;;;9.03;98.04
25855;BME280;13680;49.936;11.344;2023-02-19T02:54:05;96755.44;;;8.46;99.55
25855;BME280;13680;49.936;11.344;2023-02-19T02:56:51;96748.09;;;8.76;98.94
25855;BME280;13680;49.936;11.344;2023-02-19T02:59:21;96748.13;;;8.52;100.00
25855;BME280;13680;49.936;11.344;2023-02-19T03:01:52;96751.63;;;8.52;100.00
25855;BME280;13680;49.936;11.344;2023-02-19T03:05:04;96740.47;;;8.40;100.00
25855;BME280;13680;49.936;11.344;2023-02-19T03:07:53;96751.84;;;8.99;98.84
25855;BME280;13680;49.936;11.344;2023-02-19T03:10:26;96755.00;;;8.82;98.15
25855;BME280;13680;49.936;11.344;2023-02-19T03:12:54;96744.28;;;9.01;96.52
25855;BME280;13680;49.936;11.344;2023-02-19T03:15:44;96748.72;;;8.92;98.04
25855;BME280;13680;49.936;11.344;2023-02-19T03:18:32;96744.66;;;8.51;99.68
25855;BME280;13680;49.936;11.344;2023-02-19T03:21:19;96738.53;;;8.70;100.00
25855;BME280;13680;49.936;11.344;2023-02-19T03:23:46;96738.78;;;8.49;100.00
25855;BME280;13680;49.936;11.344;2023-02-19T03:26:32;96739.84;;;8.73;99.86
25855;BME280;13680;49.936;11.344;2023-02-19T03:28:58;96739.72;;;8.83;97.72
25855;BME280;13680;49.936;11.344;2023-02-19T03:31:45;96729.34;;;8.95;98.04
25855;BME280;13680;49.936;11.344;2023-02-19T03:34:15;96736.31;;;8.53;100.00
25855;BME280;13680;49.936;11.344;2023-02-19T03:36:45;96730.78;;;8.68;99.68
25855;BME280;13680;49.936;11.344;2023-02-19T03:39:14;96739.88;;;8.92;97.79
25855;BME280;13680;49.936;11.344;2023-02-19T03:41:59;96741.44;;;8.93;98.87
25855;BME280;13680;49.936;11.344;2023-02-19T03:44:44;96742.69;;;9.00;96.91
25855;BME280;13680;49.936;11.344;2023-02-19T03:47:24;96746.81;;;9.31;95.09
25855;BME280;13680;49.936;11.344;2023-02-19T03:52:33;96738.72;;;9.17;95.02
25855;BME280;13680;49.936;11.344;2023-02-19T03:55:25;96733.25;;;9.03;95.91
25855;BME280;13680;49.936;11.344;2023-02-19T03:58:16;96728.13;;;9.07;96.65
25855;BME280;13680;49.936;11.344;2023-02-19T04:00:53;96725.03;;;8.99;95.79
25855;BME280;13680;49.936;11.344;2023-02-19T04:03:34;96720.16;;;9.01;97.17
25855;BME280;13680;49.936;11.344;2023-02-19T04:06:03;96730.00;;;8.87;96.85
25855;BME280;13680;49.936;11.344;2023-02-19T04:08:33;96733.31;;;8.79;98.50
25855;BME280;13680;49.936;11.344;2023-02-19T04:11:00;96730.81;;;9.07;96.81
25855;BME280;13680;49.936;11.344;2023-02-19T04:13:29;96723.44;;;8.98;97.03
25855;BME280;13680;49.936;11.344;2023-02-19T04:16:01;96726.34;;;9.02;96.07
25855;BME280;13680;49.936;11.344;2023-02-19T04:18:33;96712.91;;;9.21;94.53
25855;BME280;13680;49.936;11.344;2023-02-19T04:21:01;96725.59;;;8.96;97.17
25855;BME280;13680;49.936;11.344;2023-02-19T04:23:29;96718.81;;;9.37;94.41
25855;BME280;13680;49.936;11.344;2023-02-19T04:26:00;96732.09;;;8.90;95.59
25855;BME280;13680;49.936;11.344;2023-02-19T04:28:27;96733.69;;;8.91;97.41
25855;BME280;13680;49.936;11.344;2023-02-19T04:30:52;96733.25;;;9.22;94.61
25855;BME280;13680;49.936;11.344;2023-02-19T04:33:18;96747.50;;;9.04;95.94
25855;BME280;13680;49.936;11.344;2023-02-19T04:35:43;96733.72;;;9.29;94.28
25855;BME280;13680;49.936;11.344;2023-02-19T04:38:08;96727.03;;;8.89;96.42
25855;BME280;13680;49.936;11.344;2023-02-19T04:40:34;96725.56;;;9.34;93.60
25855;BME280;13680;49.936;11.344;2023-02-19T04:42:59;96737.63;;;9.18;93.65
25855;BME280;13680;49.936;11.344;2023-02-19T04:45:24;96745.44;;;9.14;93.55
25855;BME280;13680;49.936;11.344;2023-02-19T04:47:50;96736.31;;;9.15;93.71
25855;BME280;13680;49.936;11.344;2023-02-19T04:50:15;96731.53;;;9.31;93.13
25855;BME280;13680;49.936;11.344;2023-02-19T04:52:41;96735.59;;;9.29;92.89
25855;BME280;13680;49.936;11.344;2023-02-19T04:55:07;96741.75;;;9.10;93.61
25855;BME280;13680;49.936;11.344;2023-02-19T04:57:33;96732.03;;;8.95;94.59
25855;BME280;13680;49.936;11.344;2023-02-19T04:59:58;96742.41;;;9.02;94.89
25855;BME280;13680;49.936;11.344;2023-02-19T05:02:24;96732.03;;;8.95;95.54
25855;BME280;13680;49.936;11.344;2023-02-19T05:04:49;96723.91;;;9.20;93.73
25855;BME280;13680;49.936;11.344;2023-02-19T05:07:14;96734.00;;;9.28;93.03
25855;BME280;13680;49.936;11.344;2023-02-19T05:09:40;96734.06;;;9.42;91.68
25855;BME280;13680;49.936;11.344;2023-02-19T05:12:05;96733.69;;;8.91;94.25
25855;BME280;13680;49.936;11.344;2023-02-19T05:14:30;96744.22;;;9.26;92.70
25855;BME280;13680;49.936;11.344;2023-02-19T05:16:56;96725.09;;;9.13;92.16
25855;BME280;13680;49.936;11.344;2023-02-19T05:19:21;96725.38;;;9.12;90.95
25855;BME280;13680;49.936;11.344;2023-02-19T05:21:46;96739.94;;;9.06;92.14
25855;BME280;13680;49.936;11.344;2023-02-19T05:24:12;96740.69;;;9.11;90.35
25855;BME280;13680;49.936;11.344;2023-02-19T05:26:37;96742.34;;;9.26;90.75
25855;BME280;13680;49.936;11.344;2023-02-19T05:29:02;96740.75;;;9.44;89.62
25855;BME280;13680;49.936;11.344;2023-02-19T05:31:28;96732.84;;;9.34;90.21
25855;BME280;13680;49.936;11.344;2023-02-19T05:33:56;96740.09;;;9.14;91.10
25855;BME280;13680;49.936;11.344;2023-02-19T05:36:22;96742.69;;;9.39;90.05
25855;BME280;13680;49.936;11.344;2023-02-19T05:38:55;96736.03;;;9.17;89.87
25855;BME280;13680;49.936;11.344;2023-02-19T05:41:23;96730.38;;;8.99;93.61
25855;BME280;13680;49.936;11.344;2023-02-19T05:43:50;96741.81;;;8.86;93.10
25855;BME280;13680;49.936;11.344;2023-02-19T05:46:18;96747.19;;;9.05;93.45
25855;BME280;13680;49.936;11.344;2023-02-19T05:48:44;96744.19;;;8.68;93.43
25855;BME280;13680;49.936;11.344;2023-02-19T05:51:14;96750.97;;;9.04;91.65
25855;BME280;13680;49.936;11.344;2023-02-19T05:53:40;96748.25;;;8.85;94.01
25855;BME280;13680;49.936;11.344;2023-02-19T05:58:51;96751.97;;;9.27;92.73
25855;BME280;13680;49.936;11.344;2023-02-19T06:01:18;96749.09;;;9.24;91.51
25855;BME280;13680;49.936;11.344;2023-02-19T06:03:44;96754.22;;;9.39;91.99
25855;BME280;13680;49.936;11.344;2023-02-19T06:06:12;96761.69;;;9.23;91.68
25855;BME280;13680;49.936;11.344;2023-02-19T06:08:38;96763.81;;;9.26;92.03
25855;BME280;13680;49.936;11.344;2023-02-19T06:11:03;96764.81;;;9.11;91.81
25855;BME280;13680;49.936;11.344;2023-02-19T06:13:29;96766.91;;;9.14;92.98
25855;BME280;13680;49.936;11.344;2023-02-19T06:15:54;96775.84;;;9.29;91.92
25855;BME280;13680;49.936;11.344;2023-02-19T06:18:20;96770.78;;;8.84;93.90
25855;BME280;13680;49.936;11.344;2023-02-19T06:20:45;96776.94;;;9.28;91.69
25855;BME280;13680;49.936;11.344;2023-02-19T06:23:10;96772.84;;;8.92;92.54
25855;BME280;13680;49.936;11.344;2023-02-19T06:25:36;96771.47;;;8.95;91.90
25855;BME280;13680;49.936;11.344;2023-02-19T06:28:01;96772.13;;;9.25;90.99
25855;BME280;13680;49.936;11.344;2023-02-19T06:30:26;96778.66;;;8.99;91.59
25855;BME280;13680;49.936;11.344;2023-02-19T06:32:52;96769.50;;;9.00;91.30
25855;BME280;13680;49.936;11.344;2023-02-19T06:35:18;96776.13;;;9.27;89.85
25855;BME280;13680;49.936;11.344;2023-02-19T06:37:45;96778.94;;;9.17;90.60
25855;BME280;13680;49.936;11.344;2023-02-19T06:40:11;96783.00;;;9.33;88.71
25855;BME280;13680;49.936;11.344;2023-02-19T06:42:36;96777.72;;;9.09;90.85
25855;BME280;13680;49.936;11.344;2023-02-19T06:45:01;96790.19;;;9.19;89.86
25855;BME280;13680;49.936;11.344;2023-02-19T06:47:30;96792.97;;;9.33;87.80
25855;BME280;13680;49.936;11.344;2023-02-19T06:49:56;96798.38;;;9.09;90.82
25855;BME280;13680;49.936;11.344;2023-02-19T06:52:22;96791.38;;;9.32;89.45
25855;BME280;13680;49.936;11.344;2023-02-19T06:54:47;96797.81;;;9.31;88.34
25855;BME280;13680;49.936;11.344;2023-02-19T06:57:13;96812.81;;;9.32;89.09
25855;BME280;13680;49.936;11.344;2023-02-19T06:59:38;96810.00;;;9.23;88.92
25855;BME280;13680;49.936;11.344;2023-02-19T07:02:03;96816.59;;;9.50;86.85
25855;BME280;13680;49.936;11.344;2023-02-19T07:04:29;96810.59;;;9.58;86.46
25855;BME280;13680;49.936;11.344;2023-02-19T07:06:54;96821.03;;;9.41;87.55
25855;BME280;13680;49.936;11.344;2023-02-19T07:09:19;96820.16;;;9.64;85.68
25855;BME280;13680;49.936;11.344;2023-02-19T07:11:45;96827.34;;;9.31;87.03
25855;BME280;13680;49.936;11.344;2023-02-19T07:14:14;96831.38;;;9.28;87.67
25855;BME280;13680;49.936;11.344;2023-02-19T07:16:40;96828.41;;;8.87;89.65
25855;BME280;13680;49.936;11.344;2023-02-19T07:19:05;96843.13;;;9.32;87.93
25855;BME280;13680;49.936;11.344;2023-02-19T07:21:31;96836.13;;;9.37;86.67
25855;BME280;13680;49.936;11.344;2023-02-19T07:24:01;96832.47;;;9.65;84.93
25855;BME280;13680;49.936;11.344;2023-02-19T07:26:27;96841.44;;;9.61;86.12
25855;BME280;13680;49.936;11.344;2023-02-19T07:28:52;96839.50;;;9.23;86.62
25855;BME280;13680;49.936;11.344;2023-02-19T07:31:19;96850.41;;;9.51;86.04
25855;BME280;13680;49.936;11.344;2023-02-19T07:33:46;96844.53;;;9.49;85.88
25855;BME280;13680;49.936;11.344;2023-02-19T07:36:12;96847.41;;;9.14;87.86
25855;BME280;13680;49.936;11.344;2023-02-19T07:38:37;96854.69;;;9.33;86.79
25855;BME280;13680;49.936;11.344;2023-02-19T07:41:04;96857.56;;;9.17;88.55
25855;BME280;13680;49.936;11.344;2023-02-19T07:43:32;96864.00;;;9.16;88.75
25855;BME280;13680;49.936;11.344;2023-02-19T07:45:58;96860.38;;;9.50;87.08
25855;BME280;13680;49.936;11.344;2023-02-19T07:48:23;96861.88;;;9.38;87.55
25855;BME280;13680;49.936;11.344;2023-02-19T07:50:52;96870.50;;;9.34;90.12
25855;BME280;13680;49.936;11.344;2023-02-19T07:53:18;96866.19;;;9.14;91.25
25855;BME280;13680;49.936;11.344;2023-02-19T07:55:44;96861.72;;;9.29;89.29
25855;BME280;13680;49.936;11.344;2023-02-19T07:58:09;96861.00;;;9.42;89.68
25855;BME280;13680;49.936;11.344;2023-02-19T08:00:34;96862.06;;;9.41;89.05
25855;BME280;13680;49.936;11.344;2023-02-19T08:03:00;96881.44;;;8.95;92.16
25855;BME280;13680;49.936;11.344;2023-02-19T08:05:30;96880.91;;;9.17;90.77
25855;BME280;13680;49.936;11.344;2023-02-19T08:07:56;96885.72;;;8.96;92.78
25855;BME280;13680;49.936;11.344;2023-02-19T08:10:22;96885.00;;;8.85;92.61
25855;BME280;13680;49.936;11.344;2023-02-19T08:13:10;96887.50;;;9.25;91.83
25855;BME280;13680;49.936;11.344;2023-02-19T08:15:53;96888.22;;;9.11;91.02
25855;BME280;13680;49.936;11.344;2023-02-19T08:18:22;96890.00;;;9.21;91.88
25855;BME280;13680;49.936;11.344;2023-02-19T08:20:48;96889.59;;;9.09;92.23
25855;BME280;13680;49.936;11.344;2023-02-19T08:23:13;96894.31;;;9.17;92.17
25855;BME280;13680;49.936;11.344;2023-02-19T08:25:40;96887.19;;;9.07;92.34
25855;BME280;13680;49.936;11.344;2023-02-19T08:28:07;96897.00;;;9.17;92.33
25855;BME280;13680;49.936;11.344;2023-02-19T08:30:33;96896.78;;;9.38;89.86
25855;BME280;13680;49.936;11.344;2023-02-19T08:32:59;96907.47;;;9.19;91.65
25855;BME280;13680;49.936;11.344;2023-02-19T08:35:26;96905.50;;;9.24;90.98
25855;BME280;13680;49.936;11.344;2023-02-19T08:37:54;96917.69;;;9.16;91.26
25855;BME280;13680;49.936;11.344;2023-02-19T08:40:20;96917.34;;;9.42;90.10
25855;BME280;13680;49.936;11.344;2023-02-19T08:42:46;96919.13;;;9.52;89.78
25855;BME280;13680;49.936;11.344;2023-02-19T08:45:11;96929.59;;;9.73;88.21
25855;BME280;13680;49.936;11.344;2023-02-19T08:47:37;96929.53;;;9.34;89.88
25855;BME280;13680;49.936;11.344;2023-02-19T08:50:04;96942.44;;;9.32;89.65
25855;BME280;13680;49.936;11.344;2023-02-19T08:52:30;96951.19;;;9.19;90.00
25855;BME280;13680;49.936;11.344;2023-02-19T08:54:55;96939.38;;;9.20;89.26
25855;BME280;13680;49.936;11.344;2023-02-19T08:57:21;96952.25;;;9.18;89.39
25855;BME280;13680;49.936;11.344;2023-02-19T08:59:46;96949.69;;;9.32;88.90
25855;BME280;13680;49.936;11.344;2023-02-19T09:02:11;96962.75;;;9.39;89.57
25855;BME280;13680;49.936;11.344;2023-02-19T09:04:37;96961.38;;;9.17;88.79
25855;BME280;13680;49.936;11.344;2023-02-19T09:07:04;96956.91;;;9.37;88.29
25855;BME280;13680;49.936;11.344;2023-02-19T09:09:36;96970.19;;;9.47;87.88
25855;BME280;13680;49.936;11.344;2023-02-19T09:12:06;96966.59;;;9.76;86.10
25855;BME280;13680;49.936;11.344;2023-02-19T09:14:32;96974.53;;;9.43;87.02
25855;BME280;13680;49.936;11.344;2023-02-19T09:16:59;96980.00;;;9.57;85.40
25855;BME280;13680;49.936;11.344;2023-02-19T09:19:25;96977.72;;;9.45;86.11
25855;BME280;13680;49.936;11.344;2023-02-19T09:21:50;96990.41;;;9.15;87.26
25855;BME280;13680;49.936;11.344;2023-02-19T09:24:16;96991.84;;;9.31;86.79
25855;BME280;13680;49.936;11.344;2023-02-19T09:26:41;96987.59;;;9.74;85.06
25855;BME280;13680;49.936;11.344;2023-02-19T09:29:06;96974.28;;;9.63;85.38
25855;BME280;13680;49.936;11.344;2023-02-19T09:31:32;96982.25;;;9.49;84.86
25855;BME280;13680;49.936;11.344;2023-02-19T09:33:59;96987.03;;;9.53;84.90
25855;BME280;13680;49.936;11.344;2023-02-19T09:36:24;96987.44;;;9.41;85.25
25855;BME280;13680;49.936;11.344;2023-02-19T09:38:50;96976.31;;;9.72;84.41
25855;BME280;13680;49.936;11.344;2023-02-19T09:43:50;96982.69;;;9.57;84.23
25855;BME280;13680;49.936;11.344;2023-02-19T09:46:23;96983.75;;;9.80;82.73
25855;BME280;13680;49.936;11.344;2023-02-19T09:48:52;96988.88;;;9.57;83.10
25855;BME280;13680;49.936;11.344;2023-02-19T09:51:20;96991.88;;;9.75;81.66
25855;BME280;13680;49.936;11.344;2023-02-19T09:53:48;96996.34;;;9.60;82.88
25855;BME280;13680;49.936;11.344;2023-02-19T09:56:15;96990.53;;;9.53;83.11
25855;BME280;13680;49.936;11.344;2023-02-19T09:58:49;96988.69;;;9.48;84.06
25855;BME280;13680;49.936;11.344;2023-02-19T10:01:16;97002.84;;;9.54;83.51
25855;BME280;13680;49.936;11.344;2023-02-19T10:03:47;97000.78;;;9.70;85.83
25855;BME280;13680;49.936;11.344;2023-02-19T10:06:26;97001.13;;;10.07;83.51
25855;BME280;13680;49.936;11.344;2023-02-19T10:09:22;97018.09;;;9.83;83.96
25855;BME280;13680;49.936;11.344;2023-02-19T10:11:50;97011.78;;;9.93;83.68
25855;BME280;13680;49.936;11.344;2023-02-19T10:14:21;97019.03;;;9.92;84.73
25855;BME280;13680;49.936;11.344;2023-02-19T10:16:51;97022.69;;;9.58;86.17
25855;BME280;13680;49.936;11.344;2023-02-19T10:19:16;97018.50;;;9.71;85.67
25855;BME280;13680;49.936;11.344;2023-02-19T10:21:42;97034.38;;;9.68;86.11
25855;BME280;13680;49.936;11.344;2023-02-19T10:24:15;97027.78;;;10.03;85.28
25855;BME280;13680;49.936;11.344;2023-02-19T10:26:44;97028.88;;;9.78;86.77
25855;BME280;13680;49.936;11.344;2023-02-19T10:29:10;97030.44;;;9.84;86.07
25855;BME280;13680;49.936;11.344;2023-02-19T10:31:35;97034.25;;;9.78;85.97
25855;BME280;13680;49.936;11.344;2023-02-19T10:34:01;97038.63;;;9.74;86.77
25855;BME280;13680;49.936;11.344;2023-02-19T10:36:37;97045.00;;;9.54;87.30
25855;BME280;13680;49.936;11.344;2023-02-19T10:41:51;97050.38;;;9.78;86.01
25855;BME280;13680;49.936;11.344;2023-02-19T10:44:25;97052.09;;;9.69;85.25
25855;BME280;13680;49.936;11.344;2023-02-19T10:46:54;97061.91;;;9.54;86.88
25855;BME280;13680;49.936;11.344;2023-02-19T10:51:58;97058.72;;;10.01;84.50
25855;BME280;13680;49.936;11.344;2023-02-19T10:54:29;97058.81;;;10.34;82.62
25855;BME280;13680;49.936;11.344;2023-02-19T10:57:14;97064.38;;;10.61;81.68
25855;BME280;13680;49.936;11.344;2023-02-19T10:59:50;97065.81;;;9.91;83.41
25855;BME280;13680;49.936;11.344;2023-02-19T11:02:18;97072.00;;;10.11;81.20
25855;BME280;13680;49.936;11.344;2023-02-19T11:07:27;97064.34;;;10.23;80.29
25855;BME280;13680;49.936;11.344;2023-02-19T11:09:53;97075.72;;;10.15;81.07
25855;BME280;13680;49.936;11.344;2023-02-19T11:12:32;97076.44;;;9.77;82.77
25855;BME280;13680;49.936;11.344;2023-02-19T11:15:18;97071.63;;;9.98;83.60
25855;BME280;13680;49.936;11.344;2023-02-19T11:17:44;97079.13;;;10.02;82.02
25855;BME280;13680;49.936;11.344;2023-02-19T11:20:14;97058.25;;;10.37;80.66
25855;BME280;13680;49.936;11.344;2023-02-19T11:22:43;97078.63;;;10.19;81.46
25855;BME280;13680;49.936;11.344;2023-02-19T11:32:55;97082.44;;;9.93;82.12
25855;BME280;13680;49.936;11.344;2023-02-19T11:35:22;97087.13;;;10.07;81.93
25855;BME280;13680;49.936;11.344;2023-02-19T11:38:00;97080.06;;;10.11;81.89
25855;BME280;13680;49.936;11.344;2023-02-19T11:43:46;97072.03;;;10.30;80.88
25855;BME280;13680;49.936;11.344;2023-02-19T11:48:51;97087.72;;;10.23;81.27
25855;BME280;13680;49.936;11.344;2023-02-19T11:54:01;97094.22;;;10.41;80.52
25855;BME280;13680;49.936;11.344;2023-02-19T11:56:33;97076.59;;;10.29;81.42
25855;BME280;13680;49.936;11.344;2023-02-19T11:59:06;97088.75;;;10.03;83.73
25855;BME280;13680;49.936;11.344;2023-02-19T12:02:19;97092.50;;;10.50;82.18
25855;BME280;13680;49.936;11.344;2023-02-19T12:10:51;97099.41;;;10.13;85.18
25855;BME280;13680;49.936;11.344;2023-02-19T12:18:55;97107.19;;;10.14;84.58
25855;BME280;13680;49.936;11.344;2023-02-19T12:27:54;97096.06;;;10.64;81.28
25855;BME280;13680;49.936;11.344;2023-02-19T12:30:34;97113.34;;;10.15;80.17
25855;BME280;13680;49.936;11.344;2023-02-19T12:36:31;97104.28;;;10.73;77.63
25855;BME280;13680;49.936;11.344;2023-02-19T12:38:46;97105.28;;;10.77;77.21
25855;BME280;13680;49.936;11.344;2023-02-19T12:41:43;97121.19;;;10.93;77.16
25855;BME280;13680;49.936;11.344;2023-02-19T12:44:20;97118.78;;;10.91;77.46
25855;BME280;13680;49.936;11.344;2023-02-19T12:46:57;97114.97;;;10.35;78.92
25855;BME280;13680;49.936;11.344;2023-02-19T12:49:30;97116.84;;;10.59;77.18
25855;BME280;13680;49.936;11.344;2023-02-19T12:52:15;97122.56;;;10.71;76.35
25855;BME280;13680;49.936;11.344;2023-02-19T12:54:48;97130.69;;;10.47;77.27
25855;BME280;13680;49.936;11.344;2023-02-19T12:57:27;97126.00;;;9.90;78.86
25855;BME280;13680;49.936;11.344;2023-02-19T13:03:27;97140.09;;;10.01;80.31
25855;BME280;13680;49.936;11.344;2023-02-19T13:08:37;97164.63;;;9.36;82.72
25855;BME280;13680;49.936;11.344;2023-02-19T13:11:13;97158.69;;;9.68;82.26
25855;BME280;13680;49.936;11.344;2023-02-19T13:13:45;97160.41;;;9.59;79.22
25855;BME280;13680;49.936;11.344;2023-02-19T13:16:14;97162.84;;;9.55;79.85
25855;BME280;13680;49.936;11.344;2023-02-19T13:18:45;97162.09;;;9.49;80.95
25855;BME280;13680;49.936;11.344;2023-02-19T13:21:13;97155.50;;;9.66;80.26
25855;BME280;13680;49.936;11.344;2023-02-19T13:24:05;97161.22;;;9.83;79.17
25855;BME280;13680;49.936;11.344;2023-02-19T13:32:24;97146.78;;;9.50;81.44
25855;BME280;13680;49.936;11.344;2023-02-19T13:37:22;97146.22;;;9.82;81.28
25855;BME280;13680;49.936;11.344;2023-02-19T13:39:51;97157.94;;;9.92;81.73
25855;BME280;13680;49.936;11.344;2023-02-19T13:42:34;97149.69;;;9.83;83.06
25855;BME280;13680;49.936;11.344;2023-02-19T13:45:02;97150.22;;;9.85;82.59
25855;BME280;13680;49.936;11.344;2023-02-19T13:50:23;97153.03;;;9.99;83.74
25855;BME280;13680;49.936;11.344;2023-02-19T13:52:50;97172.16;;;9.92;84.81
25855;BME280;13680;49.936;11.344;2023-02-19T14:01:01;97177.59;;;9.87;86.53
25855;BME280;13680;49.936;11.344;2023-02-19T14:03:52;97160.34;;;9.93;87.79
25855;BME280;13680;49.936;11.344;2023-02-19T14:06:16;97163.50;;;10.01;87.56
25855;BME280;13680;49.936;11.344;2023-02-19T14:08:55;97162.72;;;9.95;87.30
25855;BME280;13680;49.936;11.344;2023-02-19T14:14:36;97181.16;;;10.07;86.59
25855;BME280;13680;49.936;11.344;2023-02-19T14:17:24;97191.09;;;10.06;86.92
25855;BME280;13680;49.936;11.344;2023-02-19T14:28:19;97186.94;;;9.90;84.66
25855;BME280;13680;49.936;11.344;2023-02-19T14:30:52;97190.63;;;9.75;84.88
25855;BME280;13680;49.936;11.344;2023-02-19T14:33:33;97195.75;;;9.71;84.96
25855;BME280;13680;49.936;11.344;2023-02-19T14:36:13;97194.44;;;9.69;84.48
25855;BME280;13680;49.936;11.344;2023-02-19T14:39:01;97201.59;;;10.03;83.65
25855;BME280;13680;49.936;11.344;2023-02-19T14:41:31;97206.75;;;9.99;82.94
25855;BME280;13680;49.936;11.344;2023-02-19T14:43:58;97198.97;;;9.97;82.74
25855;BME280;13680;49.936;11.344;2023-02-19T14:46:55;97210.19;;;10.05;83.53